sensor_id;sensor_type;location;lat;lon;timestamp;temperature;humidity
62575;DHT22;53112;45.602;11.904;2023-04-02T00:01:37;23.30;45.80
62575;DHT22;53112;45.602;11.904;2023-04-02T00:04:10;23.30;45.90
62575;DHT22;53112;45.602;11.904;2023-04-02T00:06:38;23.30;45.90
62575;DHT22;53112;45.602;11.904;2023-04-02T00:09:23;23.30;45.90
62575;DHT22;53112;45.602;11.904;2023-04-02T00:11:52;23.30;46.00
62575;DHT22;53112;45.602;11.904;2023-04-02T00:14:30;23.30;46.10
62575;DHT22;53112;45.602;11.904;2023-04-02T00:17:01;23.30;46.10
62575;DHT22;53112;45.602;11.904;2023-04-02T00:19:29;23.30;46.00
62575;DHT22;53112;45.602;11.904;2023-04-02T00:21:57;23.30;45.90
62575;DHT22;53112;45.602;11.904;2023-04-02T00:24:23;23.30;45.90
62575;DHT22;53112;45.602;11.904;2023-04-02T00:26:52;23.30;46.00
62575;DHT22;53112;45.602;11.904;2023-04-02T00:29:18;23.30;45.90
62575;DHT22;53112;45.602;11.904;2023-04-02T00:31:47;23.30;45.90
62575;DHT22;53112;45.602;11.904;2023-04-02T00:36:46;23.30;45.60
62575;DHT22;53112;45.602;11.904;2023-04-02T00:39:22;23.30;45.60
62575;DHT22;53112;45.602;11.904;2023-04-02T00:41:54;23.30;45.40
62575;DHT22;53112;45.602;11.904;2023-04-02T00:44:36;23.30;45.30
62575;DHT22;53112;45.602;11.904;2023-04-02T00:47:13;23.30;45.40
62575;DHT22;53112;45.602;11.904;2023-04-02T00:49:42;23.20;45.40
62575;DHT22;53112;45.602;11.904;2023-04-02T00:52:17;23.30;45.50
62575;DHT22;53112;45.602;11.904;2023-04-02T00:54:51;23.20;45.40
62575;DHT22;53112;45.602;11.904;2023-04-02T00:57:24;23.20;45.50
62575;DHT22;53112;45.602;11.904;2023-04-02T00:59:59;23.20;45.40
62575;DHT22;53112;45.602;11.904;2023-04-02T01:02:33;23.20;45.30
62575;DHT22;53112;45.602;11.904;2023-04-02T01:10:26;23.20;45.00
62575;DHT22;53112;45.602;11.904;2023-04-02T01:15:52;23.20;44.90
62575;DHT22;53112;45.602;11.904;2023-04-02T01:18:29;23.20;45.10
62575;DHT22;53112;45.602;11.904;2023-04-02T01:23:52;23.20;44.80
62575;DHT22;53112;45.602;11.904;2023-04-02T01:26:53;23.20;45.40
62575;DHT22;53112;45.602;11.904;2023-04-02T01:32:30;23.20;45.50
62575;DHT22;53112;45.602;11.904;2023-04-02T01:34:56;23.10;45.40
62575;DHT22;53112;45.602;11.904;2023-04-02T01:45:27;23.20;45.00
62575;DHT22;53112;45.602;11.904;2023-04-02T01:47:54;23.10;45.10
62575;DHT22;53112;45.602;11.904;2023-04-02T01:50:30;23.10;45.20
62575;DHT22;53112;45.602;11.904;2023-04-02T01:53:04;23.10;45.10
62575;DHT22;53112;45.602;11.904;2023-04-02T01:58:10;23.10;45.20
62575;DHT22;53112;45.602;11.904;2023-04-02T02:01:00;23.10;45.20
62575;DHT22;53112;45.602;11.904;2023-04-02T02:03:27;23.10;45.40
62575;DHT22;53112;45.602;11.904;2023-04-02T02:05:53;23.10;45.50
62575;DHT22;53112;45.602;11.904;2023-04-02T02:08:37;23.10;45.50
62575;DHT22;53112;45.602;11.904;2023-04-02T02:11:04;23.10;45.80
62575;DHT22;53112;45.602;11.904;2023-04-02T02:13:31;23.10;45.60
62575;DHT22;53112;45.602;11.904;2023-04-02T02:16:00;23.10;45.70
62575;DHT22;53112;45.602;11.904;2023-04-02T02:18:28;23.10;45.60
62575;DHT22;53112;45.602;11.904;2023-04-02T02:20:56;23.10;45.80
62575;DHT22;53112;45.602;11.904;2023-04-02T02:23:24;23.10;45.80
62575;DHT22;53112;45.602;11.904;2023-04-02T02:25:53;23.10;45.70
62575;DHT22;53112;45.602;11.904;2023-04-02T02:28:26;23.10;45.70
62575;DHT22;53112;45.602;11.904;2023-04-02T02:31:17;23.10;45.70
62575;DHT22;53112;45.602;11.904;2023-04-02T02:33:51;23.10;45.50
62575;DHT22;53112;45.602;11.904;2023-04-02T02:36:29;23.10;45.70
62575;DHT22;53112;45.602;11.904;2023-04-02T02:41:54;23.10;45.80
62575;DHT22;53112;45.602;11.904;2023-04-02T02:44:26;23.10;45.60
62575;DHT22;53112;45.602;11.904;2023-04-02T02:47:00;23.10;45.80
62575;DHT22;53112;45.602;11.904;2023-04-02T02:49:30;23.10;45.60
62575;DHT22;53112;45.602;11.904;2023-04-02T02:54:29;23.10;45.70
62575;DHT22;53112;45.602;11.904;2023-04-02T02:57:01;23.10;45.80
62575;DHT22;53112;45.602;11.904;2023-04-02T02:59:29;23.10;45.80
62575;DHT22;53112;45.602;11.904;2023-04-02T03:01:56;23.10;46.00
62575;DHT22;53112;45.602;11.904;2023-04-02T03:04:24;23.10;46.10
62575;DHT22;53112;45.602;11.904;2023-04-02T03:06:52;23.10;46.00
62575;DHT22;53112;45.602;11.904;2023-04-02T03:18:19;23.10;45.70
62575;DHT22;53112;45.602;11.904;2023-04-02T03:21:00;23.10;45.70
62575;DHT22;53112;45.602;11.904;2023-04-02T03:23:28;23.00;45.70
62575;DHT22;53112;45.602;11.904;2023-04-02T03:28:54;23.00;45.60
62575;DHT22;53112;45.602;11.904;2023-04-02T03:31:49;23.10;45.50
62575;DHT22;53112;45.602;11.904;2023-04-02T03:34:25;23.00;45.50
62575;DHT22;53112;45.602;11.904;2023-04-02T03:39:37;23.00;45.90
62575;DHT22;53112;45.602;11.904;2023-04-02T03:42:23;23.00;46.00
62575;DHT22;53112;45.602;11.904;2023-04-02T03:45:04;23.00;46.20
62575;DHT22;53112;45.602;11.904;2023-04-02T03:47:41;23.00;46.10
62575;DHT22;53112;45.602;11.904;2023-04-02T03:50:18;23.00;46.20
62575;DHT22;53112;45.602;11.904;2023-04-02T03:52:46;23.00;46.30
62575;DHT22;53112;45.602;11.904;2023-04-02T03:55:26;23.00;46.30
62575;DHT22;53112;45.602;11.904;2023-04-02T03:58:06;23.00;46.40
62575;DHT22;53112;45.602;11.904;2023-04-02T04:00:47;23.00;46.40
62575;DHT22;53112;45.602;11.904;2023-04-02T04:03:20;23.00;46.40
62575;DHT22;53112;45.602;11.904;2023-04-02T04:05:58;23.00;46.30
62575;DHT22;53112;45.602;11.904;2023-04-02T04:08:34;23.00;46.40
62575;DHT22;53112;45.602;11.904;2023-04-02T04:11:14;23.00;46.40
62575;DHT22;53112;45.602;11.904;2023-04-02T04:13:50;23.00;46.40
62575;DHT22;53112;45.602;11.904;2023-04-02T04:16:25;23.00;46.40
62575;DHT22;53112;45.602;11.904;2023-04-02T04:21:29;22.90;46.00
62575;DHT22;53112;45.602;11.904;2023-04-02T04:24:21;22.90;46.10
62575;DHT22;53112;45.602;11.904;2023-04-02T04:27:03;22.90;45.80
62575;DHT22;53112;45.602;11.904;2023-04-02T04:29:44;22.90;46.00
62575;DHT22;53112;45.602;11.904;2023-04-02T04:35:36;22.90;46.30
62575;DHT22;53112;45.602;11.904;2023-04-02T04:38:17;22.90;46.40
62575;DHT22;53112;45.602;11.904;2023-04-02T04:40:52;22.90;46.40
62575;DHT22;53112;45.602;11.904;2023-04-02T04:43:46;22.90;46.50
62575;DHT22;53112;45.602;11.904;2023-04-02T04:46:24;22.90;46.50
62575;DHT22;53112;45.602;11.904;2023-04-02T04:49:04;22.90;46.50
62575;DHT22;53112;45.602;11.904;2023-04-02T04:54:00;22.90;46.60
62575;DHT22;53112;45.602;11.904;2023-04-02T04:56:29;22.90;46.60
62575;DHT22;53112;45.602;11.904;2023-04-02T04:59:02;22.80;46.50
62575;DHT22;53112;45.602;11.904;2023-04-02T05:01:41;22.90;46.50
62575;DHT22;53112;45.602;11.904;2023-04-02T05:04:34;22.90;46.50
62575;DHT22;53112;45.602;11.904;2023-04-02T05:09:44;22.80;46.50
62575;DHT22;53112;45.602;11.904;2023-04-02T05:12:36;22.90;46.60
62575;DHT22;53112;45.602;11.904;2023-04-02T05:18:27;22.90;46.50
62575;DHT22;53112;45.602;11.904;2023-04-02T05:21:02;22.80;46.50
62575;DHT22;53112;45.602;11.904;2023-04-02T05:23:38;22.80;46.40
62575;DHT22;53112;45.602;11.904;2023-04-02T05:26:20;22.80;46.50
62575;DHT22;53112;45.602;11.904;2023-04-02T05:35:18;22.80;46.90
62575;DHT22;53112;45.602;11.904;2023-04-02T05:37:46;22.70;46.90
62575;DHT22;53112;45.602;11.904;2023-04-02T05:40:37;22.70;46.90
62575;DHT22;53112;45.602;11.904;2023-04-02T05:43:08;22.70;46.90
62575;DHT22;53112;45.602;11.904;2023-04-02T05:45:37;22.80;46.70
62575;DHT22;53112;45.602;11.904;2023-04-02T05:48:47;22.90;46.60
62575;DHT22;53112;45.602;11.904;2023-04-02T05:51:17;22.90;46.60
62575;DHT22;53112;45.602;11.904;2023-04-02T05:53:51;22.90;46.50
62575;DHT22;53112;45.602;11.904;2023-04-02T05:56:23;23.00;46.50
62575;DHT22;53112;45.602;11.904;2023-04-02T05:58:53;23.00;46.40
62575;DHT22;53112;45.602;11.904;2023-04-02T06:09:41;23.50;45.70
62575;DHT22;53112;45.602;11.904;2023-04-02T06:14:43;23.60;45.50
62575;DHT22;53112;45.602;11.904;2023-04-02T06:17:17;23.70;45.30
62575;DHT22;53112;45.602;11.904;2023-04-02T06:19:43;23.80;45.30
62575;DHT22;53112;45.602;11.904;2023-04-02T06:22:35;23.90;45.20
62575;DHT22;53112;45.602;11.904;2023-04-02T06:27:38;23.90;45.30
62575;DHT22;53112;45.602;11.904;2023-04-02T06:30:09;23.90;45.30
62575;DHT22;53112;45.602;11.904;2023-04-02T06:32:38;23.80;45.40
62575;DHT22;53112;45.602;11.904;2023-04-02T06:35:05;23.80;45.40
62575;DHT22;53112;45.602;11.904;2023-04-02T06:37:35;23.80;45.40
62575;DHT22;53112;45.602;11.904;2023-04-02T06:40:04;23.80;45.40
62575;DHT22;53112;45.602;11.904;2023-04-02T06:42:33;23.80;45.40
62575;DHT22;53112;45.602;11.904;2023-04-02T06:44:59;23.70;45.40
62575;DHT22;53112;45.602;11.904;2023-04-02T06:47:38;23.70;45.40
62575;DHT22;53112;45.602;11.904;2023-04-02T06:50:16;23.70;45.50
62575;DHT22;53112;45.602;11.904;2023-04-02T06:52:52;23.60;45.50
62575;DHT22;53112;45.602;11.904;2023-04-02T06:55:46;23.50;45.70
62575;DHT22;53112;45.602;11.904;2023-04-02T06:58:17;23.50;45.70
62575;DHT22;53112;45.602;11.904;2023-04-02T07:00:48;23.40;45.80
62575;DHT22;53112;45.602;11.904;2023-04-02T07:03:20;23.40;45.90
62575;DHT22;53112;45.602;11.904;2023-04-02T07:05:48;23.40;45.80
62575;DHT22;53112;45.602;11.904;2023-04-02T07:08:14;23.40;45.80
62575;DHT22;53112;45.602;11.904;2023-04-02T07:10:40;23.40;45.80
62575;DHT22;53112;45.602;11.904;2023-04-02T07:13:06;23.40;45.90
62575;DHT22;53112;45.602;11.904;2023-04-02T07:15:32;23.40;45.70
62575;DHT22;53112;45.602;11.904;2023-04-02T07:17:58;23.40;45.70
62575;DHT22;53112;45.602;11.904;2023-04-02T07:20:34;23.30;45.80
62575;DHT22;53112;45.602;11.904;2023-04-02T07:23:03;23.40;45.70
62575;DHT22;53112;45.602;11.904;2023-04-02T07:25:29;23.30;45.70
62575;DHT22;53112;45.602;11.904;2023-04-02T07:27:55;23.30;45.70
62575;DHT22;53112;45.602;11.904;2023-04-02T07:30:21;23.30;45.70
62575;DHT22;53112;45.602;11.904;2023-04-02T07:32:48;23.30;45.50
62575;DHT22;53112;45.602;11.904;2023-04-02T07:35:14;23.30;45.50
62575;DHT22;53112;45.602;11.904;2023-04-02T07:37:40;23.30;45.60
62575;DHT22;53112;45.602;11.904;2023-04-02T07:40:15;23.30;45.70
62575;DHT22;53112;45.602;11.904;2023-04-02T07:42:45;23.30;45.60
62575;DHT22;53112;45.602;11.904;2023-04-02T07:45:12;23.20;45.80
62575;DHT22;53112;45.602;11.904;2023-04-02T07:47:38;23.30;45.80
62575;DHT22;53112;45.602;11.904;2023-04-02T07:50:05;23.30;45.80
62575;DHT22;53112;45.602;11.904;2023-04-02T07:52:33;23.30;45.80
62575;DHT22;53112;45.602;11.904;2023-04-02T07:55:00;23.20;45.90
62575;DHT22;53112;45.602;11.904;2023-04-02T07:57:26;23.30;45.80
62575;DHT22;53112;45.602;11.904;2023-04-02T07:59:52;23.20;45.80
62575;DHT22;53112;45.602;11.904;2023-04-02T08:02:21;23.20;45.80
62575;DHT22;53112;45.602;11.904;2023-04-02T08:04:48;23.30;45.80
62575;DHT22;53112;45.602;11.904;2023-04-02T08:07:16;23.20;45.90
62575;DHT22;53112;45.602;11.904;2023-04-02T08:09:43;23.20;45.90
62575;DHT22;53112;45.602;11.904;2023-04-02T08:12:13;23.20;45.90
62575;DHT22;53112;45.602;11.904;2023-04-02T08:14:38;23.20;45.90
62575;DHT22;53112;45.602;11.904;2023-04-02T08:17:04;23.20;45.90
62575;DHT22;53112;45.602;11.904;2023-04-02T08:19:30;23.20;45.90
62575;DHT22;53112;45.602;11.904;2023-04-02T08:21:58;23.20;45.90
62575;DHT22;53112;45.602;11.904;2023-04-02T08:24:24;23.20;45.80
62575;DHT22;53112;45.602;11.904;2023-04-02T08:26:50;23.20;45.80
62575;DHT22;53112;45.602;11.904;2023-04-02T08:29:18;23.20;45.80
62575;DHT22;53112;45.602;11.904;2023-04-02T08:31:44;23.20;45.80
62575;DHT22;53112;45.602;11.904;2023-04-02T08:34:10;23.30;45.80
62575;DHT22;53112;45.602;11.904;2023-04-02T08:36:38;23.30;45.70
62575;DHT22;53112;45.602;11.904;2023-04-02T08:39:06;23.30;45.50
62575;DHT22;53112;45.602;11.904;2023-04-02T08:41:42;23.30;45.30
62575;DHT22;53112;45.602;11.904;2023-04-02T08:47:02;23.30;45.60
62575;DHT22;53112;45.602;11.904;2023-04-02T08:49:49;23.40;45.50
62575;DHT22;53112;45.602;11.904;2023-04-02T08:52:31;23.40;45.50
62575;DHT22;53112;45.602;11.904;2023-04-02T08:55:01;23.40;45.50
62575;DHT22;53112;45.602;11.904;2023-04-02T08:57:33;23.40;45.50
62575;DHT22;53112;45.602;11.904;2023-04-02T09:00:40;23.50;45.50
62575;DHT22;53112;45.602;11.904;2023-04-02T09:05:43;23.50;45.40
62575;DHT22;53112;45.602;11.904;2023-04-02T09:08:20;23.50;45.40
62575;DHT22;53112;45.602;11.904;2023-04-02T09:13:41;23.50;45.10
62575;DHT22;53112;45.602;11.904;2023-04-02T09:16:10;23.50;45.20
62575;DHT22;53112;45.602;11.904;2023-04-02T09:18:37;23.50;45.30
62575;DHT22;53112;45.602;11.904;2023-04-02T09:23:57;23.50;45.20
62575;DHT22;53112;45.602;11.904;2023-04-02T09:26:25;23.50;45.30
62575;DHT22;53112;45.602;11.904;2023-04-02T09:28:59;23.50;45.40
62575;DHT22;53112;45.602;11.904;2023-04-02T09:31:36;23.50;45.40
62575;DHT22;53112;45.602;11.904;2023-04-02T09:34:30;23.60;45.30
62575;DHT22;53112;45.602;11.904;2023-04-02T09:37:12;23.50;45.20
62575;DHT22;53112;45.602;11.904;2023-04-02T09:39:39;23.60;45.30
62575;DHT22;53112;45.602;11.904;2023-04-02T09:42:07;23.60;45.30
62575;DHT22;53112;45.602;11.904;2023-04-02T09:44:52;23.60;45.30
62575;DHT22;53112;45.602;11.904;2023-04-02T09:47:25;23.70;45.20
62575;DHT22;53112;45.602;11.904;2023-04-02T09:49:53;23.80;45.20
62575;DHT22;53112;45.602;11.904;2023-04-02T09:52:28;23.80;45.20
62575;DHT22;53112;45.602;11.904;2023-04-02T09:55:24;23.80;45.20
62575;DHT22;53112;45.602;11.904;2023-04-02T09:58:09;23.90;45.10
62575;DHT22;53112;45.602;11.904;2023-04-02T10:00:36;23.90;45.10
62575;DHT22;53112;45.602;11.904;2023-04-02T10:03:18;23.80;45.10
62575;DHT22;53112;45.602;11.904;2023-04-02T10:05:46;23.80;45.20
62575;DHT22;53112;45.602;11.904;2023-04-02T10:08:25;23.80;45.30
62575;DHT22;53112;45.602;11.904;2023-04-02T10:10:56;23.80;45.30
62575;DHT22;53112;45.602;11.904;2023-04-02T10:16:14;23.70;45.50
62575;DHT22;53112;45.602;11.904;2023-04-02T10:21:22;23.70;45.50
62575;DHT22;53112;45.602;11.904;2023-04-02T10:23:49;23.70;45.50
62575;DHT22;53112;45.602;11.904;2023-04-02T10:26:39;23.70;45.60
62575;DHT22;53112;45.602;11.904;2023-04-02T10:29:09;23.70;45.70
62575;DHT22;53112;45.602;11.904;2023-04-02T10:31:52;23.70;45.70
62575;DHT22;53112;45.602;11.904;2023-04-02T10:34:45;23.70;45.70
62575;DHT22;53112;45.602;11.904;2023-04-02T10:43:53;23.60;45.70
62575;DHT22;53112;45.602;11.904;2023-04-02T10:51:45;23.60;45.60
62575;DHT22;53112;45.602;11.904;2023-04-02T10:54:45;23.60;45.60
62575;DHT22;53112;45.602;11.904;2023-04-02T11:05:32;23.80;45.60
62575;DHT22;53112;45.602;11.904;2023-04-02T11:08:05;23.70;45.50
62575;DHT22;53112;45.602;11.904;2023-04-02T11:10:39;23.80;45.60
62575;DHT22;53112;45.602;11.904;2023-04-02T11:13:19;23.80;45.50
62575;DHT22;53112;45.602;11.904;2023-04-02T11:15:47;23.90;45.60
62575;DHT22;53112;45.602;11.904;2023-04-02T11:18:26;23.90;45.50
62575;DHT22;53112;45.602;11.904;2023-04-02T11:20:59;23.80;45.60
62575;DHT22;53112;45.602;11.904;2023-04-02T11:23:29;23.90;45.50
62575;DHT22;53112;45.602;11.904;2023-04-02T11:29:21;23.90;45.40
62575;DHT22;53112;45.602;11.904;2023-04-02T11:31:49;23.90;45.40
62575;DHT22;53112;45.602;11.904;2023-04-02T11:37:41;23.90;45.40
62575;DHT22;53112;45.602;11.904;2023-04-02T11:42:44;23.90;45.40
62575;DHT22;53112;45.602;11.904;2023-04-02T11:50:46;23.90;45.20
62575;DHT22;53112;45.602;11.904;2023-04-02T11:58:49;24.00;44.80
62575;DHT22;53112;45.602;11.904;2023-04-02T12:01:38;24.00;44.40
62575;DHT22;53112;45.602;11.904;2023-04-02T12:09:54;24.00;44.40
62575;DHT22;53112;45.602;11.904;2023-04-02T12:12:26;24.00;44.70
62575;DHT22;53112;45.602;11.904;2023-04-02T12:14:57;24.10;44.80
62575;DHT22;53112;45.602;11.904;2023-04-02T12:17:35;24.00;44.80
62575;DHT22;53112;45.602;11.904;2023-04-02T12:22:46;24.00;44.80
62575;DHT22;53112;45.602;11.904;2023-04-02T12:25:25;24.00;44.30
62575;DHT22;53112;45.602;11.904;2023-04-02T12:28:23;24.00;44.20
62575;DHT22;53112;45.602;11.904;2023-04-02T12:30:50;24.00;44.00
62575;DHT22;53112;45.602;11.904;2023-04-02T12:35:46;24.00;43.90
62575;DHT22;53112;45.602;11.904;2023-04-02T12:38:20;24.00;43.70
62575;DHT22;53112;45.602;11.904;2023-04-02T12:40:58;24.00;43.70
62575;DHT22;53112;45.602;11.904;2023-04-02T12:43:32;24.00;44.00
62575;DHT22;53112;45.602;11.904;2023-04-02T12:46:04;24.00;43.00
62575;DHT22;53112;45.602;11.904;2023-04-02T12:48:31;24.00;43.20
62575;DHT22;53112;45.602;11.904;2023-04-02T12:50:58;24.00;43.30
62575;DHT22;53112;45.602;11.904;2023-04-02T12:53:34;24.00;43.50
62575;DHT22;53112;45.602;11.904;2023-04-02T12:56:01;23.90;43.70
62575;DHT22;53112;45.602;11.904;2023-04-02T12:58:36;23.90;43.50
62575;DHT22;53112;45.602;11.904;2023-04-02T13:01:29;24.00;44.10
62575;DHT22;53112;45.602;11.904;2023-04-02T13:06:33;24.00;44.10
62575;DHT22;53112;45.602;11.904;2023-04-02T13:09:02;24.00;44.20
62575;DHT22;53112;45.602;11.904;2023-04-02T13:11:38;24.00;44.20
62575;DHT22;53112;45.602;11.904;2023-04-02T13:14:16;24.00;44.30
62575;DHT22;53112;45.602;11.904;2023-04-02T13:16:43;24.00;44.10
62575;DHT22;53112;45.602;11.904;2023-04-02T13:19:11;24.00;44.20
62575;DHT22;53112;45.602;11.904;2023-04-02T13:21:43;24.00;44.10
62575;DHT22;53112;45.602;11.904;2023-04-02T13:24:19;24.00;44.20
62575;DHT22;53112;45.602;11.904;2023-04-02T13:26:46;24.00;44.30
62575;DHT22;53112;45.602;11.904;2023-04-02T13:29:29;23.90;43.90
62575;DHT22;53112;45.602;11.904;2023-04-02T13:31:58;23.90;44.30
62575;DHT22;53112;45.602;11.904;2023-04-02T13:34:25;24.00;44.50
62575;DHT22;53112;45.602;11.904;2023-04-02T13:36:51;24.00;44.50
62575;DHT22;53112;45.602;11.904;2023-04-02T13:39:17;23.90;43.70
62575;DHT22;53112;45.602;11.904;2023-04-02T13:42:03;24.00;43.90
62575;DHT22;53112;45.602;11.904;2023-04-02T13:44:33;24.00;43.30
62575;DHT22;53112;45.602;11.904;2023-04-02T13:46:59;24.00;44.20
62575;DHT22;53112;45.602;11.904;2023-04-02T13:49:26;24.00;43.90
62575;DHT22;53112;45.602;11.904;2023-04-02T13:51:54;24.00;43.10
62575;DHT22;53112;45.602;11.904;2023-04-02T13:54:51;24.00;43.00
62575;DHT22;53112;45.602;11.904;2023-04-02T13:57:19;24.00;41.80
62575;DHT22;53112;45.602;11.904;2023-04-02T13:59:45;23.90;42.80
62575;DHT22;53112;45.602;11.904;2023-04-02T14:02:19;24.00;43.20
62575;DHT22;53112;45.602;11.904;2023-04-02T14:04:52;24.00;43.30
62575;DHT22;53112;45.602;11.904;2023-04-02T14:07:52;24.00;43.40
62575;DHT22;53112;45.602;11.904;2023-04-02T14:16:04;24.00;42.90
62575;DHT22;53112;45.602;11.904;2023-04-02T14:29:40;24.00;42.90
62575;DHT22;53112;45.602;11.904;2023-04-02T14:32:19;24.00;43.00
62575;DHT22;53112;45.602;11.904;2023-04-02T14:35:04;24.00;43.90
62575;DHT22;53112;45.602;11.904;2023-04-02T14:37:49;24.10;44.00
62575;DHT22;53112;45.602;11.904;2023-04-02T14:42:53;24.10;44.30
62575;DHT22;53112;45.602;11.904;2023-04-02T14:48:02;24.00;43.10
62575;DHT22;53112;45.602;11.904;2023-04-02T14:50:38;24.10;43.20
62575;DHT22;53112;45.602;11.904;2023-04-02T14:53:21;24.10;43.70
62575;DHT22;53112;45.602;11.904;2023-04-02T14:55:51;24.10;44.00
62575;DHT22;53112;45.602;11.904;2023-04-02T14:58:30;24.10;43.70
62575;DHT22;53112;45.602;11.904;2023-04-02T15:01:20;24.10;42.50
62575;DHT22;53112;45.602;11.904;2023-04-02T15:03:59;24.10;43.40
62575;DHT22;53112;45.602;11.904;2023-04-02T15:06:31;24.00;42.50
62575;DHT22;53112;45.602;11.904;2023-04-02T15:09:12;24.00;42.50
62575;DHT22;53112;45.602;11.904;2023-04-02T15:11:45;24.10;42.60
62575;DHT22;53112;45.602;11.904;2023-04-02T15:14:26;24.10;42.70
62575;DHT22;53112;45.602;11.904;2023-04-02T15:16:53;24.10;42.70
62575;DHT22;53112;45.602;11.904;2023-04-02T15:19:19;24.10;42.80
62575;DHT22;53112;45.602;11.904;2023-04-02T15:24:37;24.10;42.40
62575;DHT22;53112;45.602;11.904;2023-04-02T15:29:51;24.10;42.00
62575;DHT22;53112;45.602;11.904;2023-04-02T15:40:38;23.90;41.80
62575;DHT22;53112;45.602;11.904;2023-04-02T15:43:35;23.90;42.20
62575;DHT22;53112;45.602;11.904;2023-04-02T15:46:05;23.90;41.50
62575;DHT22;53112;45.602;11.904;2023-04-02T15:54:24;23.70;41.00
62575;DHT22;53112;45.602;11.904;2023-04-02T16:00:20;23.80;41.30
62575;DHT22;53112;45.602;11.904;2023-04-02T16:05:42;23.80;41.40
62575;DHT22;53112;45.602;11.904;2023-04-02T16:10:46;23.70;40.70
62575;DHT22;53112;45.602;11.904;2023-04-02T16:13:36;23.60;41.20
62575;DHT22;53112;45.602;11.904;2023-04-02T16:19:21;23.70;41.10
62575;DHT22;53112;45.602;11.904;2023-04-02T16:22:13;23.70;40.70
62575;DHT22;53112;45.602;11.904;2023-04-02T16:24:41;23.80;40.50
62575;DHT22;53112;45.602;11.904;2023-04-02T16:32:39;23.80;41.50
62575;DHT22;53112;45.602;11.904;2023-04-02T16:38:17;23.90;40.70
62575;DHT22;53112;45.602;11.904;2023-04-02T16:52:11;23.90;41.60
62575;DHT22;53112;45.602;11.904;2023-04-02T16:57:20;24.00;42.10
62575;DHT22;53112;45.602;11.904;2023-04-02T17:07:51;23.90;42.00
62575;DHT22;53112;45.602;11.904;2023-04-02T17:10:37;23.90;42.30
62575;DHT22;53112;45.602;11.904;2023-04-02T17:15:37;23.90;42.30
62575;DHT22;53112;45.602;11.904;2023-04-02T17:18:19;23.90;42.10
62575;DHT22;53112;45.602;11.904;2023-04-02T17:20:47;23.90;41.80
62575;DHT22;53112;45.602;11.904;2023-04-02T17:23:14;23.90;42.50
62575;DHT22;53112;45.602;11.904;2023-04-02T17:26:10;23.90;42.50
62575;DHT22;53112;45.602;11.904;2023-04-02T17:28:38;23.90;42.20
62575;DHT22;53112;45.602;11.904;2023-04-02T17:31:14;23.90;42.70
62575;DHT22;53112;45.602;11.904;2023-04-02T17:33:41;24.00;43.10
62575;DHT22;53112;45.602;11.904;2023-04-02T17:36:30;23.90;43.60
62575;DHT22;53112;45.602;11.904;2023-04-02T17:39:08;23.90;44.00
62575;DHT22;53112;45.602;11.904;2023-04-02T17:47:37;23.90;44.70
62575;DHT22;53112;45.602;11.904;2023-04-02T17:53:04;23.90;45.10
62575;DHT22;53112;45.602;11.904;2023-04-02T17:55:46;23.90;45.00
62575;DHT22;53112;45.602;11.904;2023-04-02T18:03:36;23.90;45.70
62575;DHT22;53112;45.602;11.904;2023-04-02T18:06:23;23.90;45.30
62575;DHT22;53112;45.602;11.904;2023-04-02T18:12:29;23.90;45.50
62575;DHT22;53112;45.602;11.904;2023-04-02T18:20:53;23.90;45.40
62575;DHT22;53112;45.602;11.904;2023-04-02T18:23:43;23.90;45.70
62575;DHT22;53112;45.602;11.904;2023-04-02T18:26:30;23.90;45.80
62575;DHT22;53112;45.602;11.904;2023-04-02T18:34:39;23.90;45.60
62575;DHT22;53112;45.602;11.904;2023-04-02T18:45:34;23.80;45.70
62575;DHT22;53112;45.602;11.904;2023-04-02T18:51:20;23.80;45.70
62575;DHT22;53112;45.602;11.904;2023-04-02T18:53:52;23.80;45.70
62575;DHT22;53112;45.602;11.904;2023-04-02T18:56:19;23.90;45.80
62575;DHT22;53112;45.602;11.904;2023-04-02T19:01:24;23.90;45.80
62575;DHT22;53112;45.602;11.904;2023-04-02T19:04:06;23.90;45.90
62575;DHT22;53112;45.602;11.904;2023-04-02T19:06:41;23.90;45.80
62575;DHT22;53112;45.602;11.904;2023-04-02T19:11:40;23.80;45.60
62575;DHT22;53112;45.602;11.904;2023-04-02T19:14:36;23.80;45.60
62575;DHT22;53112;45.602;11.904;2023-04-02T19:17:29;23.90;45.60
62575;DHT22;53112;45.602;11.904;2023-04-02T19:20:21;23.80;45.80
62575;DHT22;53112;45.602;11.904;2023-04-02T19:36:35;23.80;45.40
62575;DHT22;53112;45.602;11.904;2023-04-02T19:39:01;23.80;45.40
62575;DHT22;53112;45.602;11.904;2023-04-02T19:43:59;23.80;45.40
62575;DHT22;53112;45.602;11.904;2023-04-02T19:46:25;23.80;45.30
62575;DHT22;53112;45.602;11.904;2023-04-02T19:51:28;23.80;45.40
62575;DHT22;53112;45.602;11.904;2023-04-02T19:53:54;23.80;45.40
62575;DHT22;53112;45.602;11.904;2023-04-02T19:56:27;23.80;45.40
62575;DHT22;53112;45.602;11.904;2023-04-02T19:58:53;23.80;45.50
62575;DHT22;53112;45.602;11.904;2023-04-02T20:01:19;23.80;45.50
62575;DHT22;53112;45.602;11.904;2023-04-02T20:03:45;23.80;45.60
62575;DHT22;53112;45.602;11.904;2023-04-02T20:06:11;23.80;45.40
62575;DHT22;53112;45.602;11.904;2023-04-02T20:08:37;23.80;45.30
62575;DHT22;53112;45.602;11.904;2023-04-02T20:11:04;23.80;45.30
62575;DHT22;53112;45.602;11.904;2023-04-02T20:13:31;23.80;45.20
62575;DHT22;53112;45.602;11.904;2023-04-02T20:15:59;23.80;45.20
62575;DHT22;53112;45.602;11.904;2023-04-02T20:18:26;23.90;45.00
62575;DHT22;53112;45.602;11.904;2023-04-02T20:20:52;23.90;44.80
62575;DHT22;53112;45.602;11.904;2023-04-02T20:23:19;23.80;44.80
62575;DHT22;53112;45.602;11.904;2023-04-02T20:25:49;23.90;44.90
62575;DHT22;53112;45.602;11.904;2023-04-02T20:28:20;23.80;45.10
62575;DHT22;53112;45.602;11.904;2023-04-02T20:30:46;23.90;45.10
62575;DHT22;53112;45.602;11.904;2023-04-02T20:33:21;23.90;45.20
62575;DHT22;53112;45.602;11.904;2023-04-02T20:35:48;23.90;45.30
62575;DHT22;53112;45.602;11.904;2023-04-02T20:38:15;23.90;45.40
62575;DHT22;53112;45.602;11.904;2023-04-02T20:40:42;23.80;45.50
62575;DHT22;53112;45.602;11.904;2023-04-02T20:43:09;23.80;45.50
62575;DHT22;53112;45.602;11.904;2023-04-02T20:45:35;23.80;45.70
62575;DHT22;53112;45.602;11.904;2023-04-02T20:48:02;23.90;45.70
62575;DHT22;53112;45.602;11.904;2023-04-02T20:50:28;23.90;45.70
62575;DHT22;53112;45.602;11.904;2023-04-02T20:52:57;23.80;45.80
62575;DHT22;53112;45.602;11.904;2023-04-02T20:55:23;23.80;45.80
62575;DHT22;53112;45.602;11.904;2023-04-02T20:57:49;23.80;45.60